Tiempo atmosférico en la estación meteorológica de Sant Pau De Seguries, Girona (863 m.)



Fecha
DESCASC
Temp. máxima en grados centígrados (hora)
DESCASC
Temp. mínima en grados centígrados (hora)
DESCASC
Temp. media en grados centígrados
DESCASC
Racha de viento máxima en m/sg (hora)
DESCASC
Velocidad máxima media en intervalos de 10 minutos(hora)
DESCASC
Precipitaciones diarias en mm
DESCASC
Precipitaciones de 00:00 a 06:00 en mm
DESCASC
Precipitaciones de 06:00 a 12:00 en mm
DESCASC
Precipitaciones de 12:00 a 18:00 en mm
DESCASC
Precipitaciones de 18:00 a 24:00 en mm
DESCASC
23-06-2019 30 (16:10) 10.2 (06:10) 20.1 8.33 (10:20) 4.17 (10:30) -- -- -- -- --
22-06-2019 24.1 (16:20) 10.2 (04:30) 17.2 5.28 (13:30) 2.78 (15:10) -- -- -- -- --
21-06-2019 21.9 (17:40) 11.8 (04:50) 16.8 4.17 (17:30) 1.94 (11:20) -- -- -- -- --
20-06-2019 25.1 (14:50) 13.2 (00:00) 19.2 10 (16:30) 3.89 (16:20) -- -- -- -- --
19-06-2019 -- (--) -- (--) -- -- (--) -- (--) -- -- -- -- --
18-06-2019 28.4 (17:00) 10.6 (00:00) 19.5 10 (14:20) 4.72 (13:40) -- -- -- -- --
17-06-2019 26.8 (15:40) 8.6 (00:00) 17.7 6.94 (15:50) 3.33 (17:10) -- -- -- -- --
16-06-2019 24.7 (17:40) 10 (00:00) 17.4 5.56 (15:00) 2.5 (19:30) -- -- -- -- --
15-06-2019 21.5 (14:40) 8.7 (00:00) 15.1 7.5 (15:40) 3.33 (15:40) -- -- -- -- --
14-06-2019 23.9 (17:30) 8.9 (00:00) 16.4 8.33 (17:20) 3.89 (11:50) -- -- -- -- --
13-06-2019 22.2 (14:30) 7.1 (00:00) 14.7 6.67 (16:40) 2.78 (13:20) 0 0 0 0 0
12-06-2019 18.6 (16:50) 3 (00:00) 10.8 8.06 (17:20) 3.33 (14:10) -- -- -- 2.6 0
11-06-2019 12.7 (00:00) 6.9 (00:00) 9.8 5 (07:10) 2.22 (16:10) -- -- -- -- --
10-06-2019 23.2 (15:50) 9 (00:00) 16.1 8.33 (16:00) 4.17 (16:10) -- -- -- -- --
09-06-2019 21.6 (17:00) 10.3 (00:00) 16 6.11 (15:30) 3.06 (18:10) -- -- -- -- --
08-06-2019 20.9 (15:40) 6.3 (00:00) 13.6 7.5 (13:10) 3.61 (12:20) -- -- -- -- --
07-06-2019 22.8 (16:20) 7.2 (00:00) 15 11.67 (12:00) 4.72 (12:30) -- -- -- -- --
06-06-2019 19.9 (14:40) 6.6 (00:00) 13.2 9.44 (13:30) 3.89 (20:00) 0 0 0 0 0
05-06-2019 21.7 (15:10) 6.8 (00:00) 14.3 11.11 (17:30) 4.72 (17:30) 0 0 0 0 0
04-06-2019 26.4 (16:40) 9.6 (00:00) 18 10.83 (13:20) 4.17 (12:50) 0 0 0 0 0
03-06-2019 27.1 (16:00) 10.5 (00:00) 18.8 8.06 (20:10) 3.89 (20:10) 0 0 0 0 0
02-06-2019 27.2 (16:50) 8.7 (00:00) 18 7.22 (01:30) 3.61 (01:50) 0 0 0 0 0
01-06-2019 25.1 (15:40) 7.1 (00:00) 16.1 6.39 (14:40) 2.78 (16:30) 0 0 0 0 0
31-05-2019 23 (14:50) 6.6 (00:00) 14.8 6.67 (10:20) 3.06 (16:00) 0 0 0 0 0
30-05-2019 21.2 (16:00) 2.8 (00:00) 12 7.78 (18:10) 3.33 (18:10) 0 0 0 0 0
29-05-2019 17.7 (15:40) 3.4 (00:00) 10.6 5.83 (17:50) 3.33 (17:40) 0 0 0 0 0
28-05-2019 16.9 (12:20) 7.2 (00:00) 12 5 (14:10) 3.06 (14:10) 1.4 0 0 1.4 0

Gráficas

Temp. máximas Temp. mínimas Temp. medias Precipitaciones Rachas de viento máximas Velocidades máximas media en intervalos de 10 minutos

Datos horarios

Fecha y hora oficial Temperatura (ºC) Velocidad del viento (km/h) Dirección del viento Racha (km/h) Dirección de racha Precipitación (mm) Presión (hPa) Tendencia (hPa) Humedad (%)
2019-06-26 23:00:00 19.4 0 Calma 8 Nordeste 0 -- -- 74
2019-06-26 22:00:00 21 2 Este 10 Nordeste 0 -- -- 70
2019-06-26 21:00:00 24.5 3 Nordeste 14 Sudeste 0 -- -- 61
2019-06-26 20:00:00 29 5 Sudeste 12 Este 0 -- -- 41
2019-06-26 19:00:00 30.5 4 Este 16 Este 0 -- -- 38
2019-06-26 18:00:00 31.2 7 Este 15 Sudeste 0 -- -- 35
2019-06-26 17:00:00 31.4 6 Nordeste 18 Este 0 -- -- 33
2019-06-26 16:00:00 31.5 6 Sur 22 Este 0 -- -- 33
2019-06-26 15:00:00 31.6 5 Sudeste 18 Nordeste 0 -- -- 33
2019-06-26 14:00:00 31.4 5 Este 15 Este 0 -- -- 33
2019-06-26 13:00:00 30.5 4 Nordeste 13 Este 0 -- -- 30
2019-06-26 12:00:00 29 5 Este 12 Este 0 -- -- 34
2019-06-26 11:00:00 27.9 4 Nordeste 8 Este 0 -- -- 38
2019-06-26 10:00:00 24.6 3 Este 13 Norte 0 -- -- 49
2019-06-26 09:00:00 20.2 3 Sudeste 12 Norte 0 -- -- 57
2019-06-26 08:00:00 16.7 5 Nordeste 13 Norte 0 -- -- 64
2019-06-26 07:00:00 14.1 6 Nordeste 15 Nordeste 0 -- -- 70
2019-06-26 06:00:00 12.5 2 Este 17 Norte 0 -- -- 82
2019-06-26 05:00:00 14.4 0 Calma 16 Nordeste 0 -- -- 73
2019-06-26 04:00:00 15.3 6 Este 13 Nordeste 0 -- -- 69
2019-06-26 03:00:00 15.7 4 Nordeste 11 Nordeste 0 -- -- 72
2019-06-26 02:00:00 16.6 5 Nordeste 12 Este 0 -- -- 74
2019-06-26 01:00:00 17.2 5 Este 12 Nordeste 0 -- -- 74
2019-06-26 00:00:00 16.9 5 Este 11 Sudeste 0 -- -- 89
2019-06-25 23:00:00 17.7 5 Nordeste 12 Nordeste 0 -- -- 83
2019-06-25 22:00:00 20 4 Nordeste 11 Nordeste 0 -- -- 75
2019-06-25 21:00:00 22.5 8 Nordeste 13 Sudeste 0 -- -- 66
2019-06-25 20:00:00 24.2 8 Sudeste 17 Este 0 -- -- 60
2019-06-25 19:00:00 26.4 8 Nordeste 16 Este 0 -- -- 53
2019-06-25 18:00:00 28.2 8 Este 20 Nordeste 0 -- -- 44
2019-06-25 17:00:00 28.7 6 Este 21 Nordeste 0 -- -- 40
2019-06-25 16:00:00 28.3 5 Este 17 Este 0 -- -- 39
2019-06-25 15:00:00 27.8 7 Este 18 Sudeste 0 -- -- 42
2019-06-25 14:00:00 27.4 6 Este 21 Nordeste 0 -- -- 43
2019-06-25 13:00:00 26.1 8 Nordeste 20 Nordeste 0 -- -- 43
2019-06-25 12:00:00 24.8 8 Este 18 Nordeste 0 -- -- 48
2019-06-25 11:00:00 23.4 8 Este 15 Este 0 -- -- 58
2019-06-25 10:00:00 21.6 7 Nordeste 13 Norte 0 -- -- 61
2019-06-25 09:00:00 17.9 4 Norte 13 Norte 0 -- -- 73
2019-06-25 08:00:00 15.8 5 Nordeste 13 Norte 0 -- -- 73
2019-06-25 07:00:00 14.1 6 Nordeste 12 Nordeste 0 -- -- 76
2019-06-25 06:00:00 14 5 Nordeste 15 Norte 0 -- -- 77
2019-06-25 05:00:00 14.6 4 Este 12 Nordeste 0 -- -- 74
2019-06-25 04:00:00 14.1 5 Este 13 Nordeste 0 -- -- 79
2019-06-25 03:00:00 14.7 5 Este 12 Nordeste 0 -- -- 77
2019-06-25 02:00:00 15.4 5 Nordeste 12 Nordeste 0 -- -- 75
2019-06-25 01:00:00 15.7 5 Este 14 Nordeste 0 -- -- 77
2019-06-25 00:00:00 16.7 4 Este 11 Este 0 -- -- 74
2019-06-24 23:00:00 16.9 3 Este 10 Norte 0 -- -- 73
2019-06-24 22:00:00 18.1 5 Nordeste 10 Este 0 -- -- 67
2019-06-24 21:00:00 19.5 2 Nordeste 9 Este 0 -- -- 61
2019-06-24 20:00:00 24 4 Este 13 Nordeste 0 -- -- 40
2019-06-24 19:00:00 25.3 5 Este 13 Nordeste 0 -- -- 41
2019-06-24 18:00:00 26.1 7 Nordeste 12 Nordeste 0 -- -- 42
2019-06-24 17:00:00 26.8 7 Este 22 Nordeste 0 -- -- 40
2019-06-24 16:00:00 26.3 8 Este 22 Nordeste 0 -- -- 45
2019-06-24 15:00:00 27.1 6 Este 24 Este 0 -- -- 41
2019-06-24 14:00:00 26.8 8 Nordeste 22 Este 0 -- -- 40
2019-06-24 13:00:00 26.1 9 Este 20 Este 0 -- -- 54
2019-06-24 12:00:00 26.7 7 Este 14 Este 0 -- -- 46
2019-06-24 11:00:00 26.3 3 Sudeste 12 Este 0.2 -- -- 50
2019-06-24 10:00:00 21.9 2 Sudoeste 6 Sudoeste 0 -- -- 70
2019-06-24 09:00:00 17.7 3 Sudoeste 5 Sudoeste 0 -- -- 89
2019-06-24 08:00:00 14.8 0 Calma 3 Oeste 0 -- -- 100
2019-06-24 07:00:00 12.7 0 Calma 4 Sur 0 -- -- 100
2019-06-24 06:00:00 13 0 Calma 5 Sudoeste 0 -- -- 100
2019-06-24 05:00:00 13.2 0 Calma 6 Oeste 0 -- -- 100
2019-06-24 04:00:00 13.8 3 Sudoeste 10 Sudoeste 0 -- -- 100
2019-06-24 03:00:00 14.1 0 Calma 3 Sudeste 0 -- -- 98
2019-06-24 02:00:00 14.6 0 Calma 4 Sudeste 0 -- -- 98
2019-06-24 01:00:00 15.3 0 Calma 3 Sur 0 -- -- 95
2019-06-24 00:00:00 16.3 0 Calma 4 Sur 0 -- -- 94
2019-06-23 23:00:00 17.4 0 Calma 5 Sudeste 0 -- -- 90
2019-06-23 22:00:00 19.3 0 Calma 6 Nordeste 0 -- -- 83
2019-06-23 21:00:00 21.8 0 Calma 9 Este 0 -- -- 75
2019-06-23 20:00:00 24.5 5 Este 17 Sudeste 0 -- -- 61
2019-06-23 19:00:00 26.3 7 Este 18 Sudeste 0 -- -- 56
2019-06-23 18:00:00 27.7 9 Este 20 Este 0 -- -- 51
2019-06-23 17:00:00 29 9 Nordeste 21 Sur 0 -- -- 46
2019-06-23 16:00:00 29.7 4 Oeste 24 Oeste 0 -- -- 44
2019-06-23 15:00:00 28.8 10 Sudoeste 25 Sudoeste 0 -- -- 43
2019-06-23 14:00:00 27.4 11 Sudoeste 27 Sudoeste 0 -- -- 49
2019-06-23 13:00:00 26 14 Sudoeste 27 Sudoeste 0 -- -- 52
2019-06-23 12:00:00 24.5 12 Sudoeste 26 Oeste 0 -- -- 55
2019-06-23 11:00:00 22.9 12 Sudoeste 30 Sudoeste 0 -- -- 58
2019-06-23 10:00:00 20.1 12 Sudoeste 22 Sudoeste 0 -- -- 71
2019-06-23 09:00:00 15.3 6 Sudoeste 13 Oeste 0 -- -- 86
2019-06-23 08:00:00 13.1 2 Sur 8 Sudoeste 0 -- -- 100
2019-06-23 07:00:00 10.8 2 Sudoeste 8 Sudoeste 0 -- -- 100
2019-06-23 06:00:00 10.4 0 Calma 3 Sur 0 -- -- 100
2019-06-23 05:00:00 11.3 0 Calma 6 Norte 0 -- -- 100
2019-06-23 04:00:00 11.9 0 Calma 3 Sur 0 -- -- 100
2019-06-23 03:00:00 12.5 0 Calma 3 Sur 0 -- -- 100
2019-06-23 02:00:00 13.1 0 Calma 3 Sudeste 0 -- -- 99
2019-06-23 01:00:00 13.8 0 Calma 9 Sudoeste 0 -- -- 99
2019-06-23 00:00:00 14.4 6 Sudoeste 11 Sudoeste 0 -- -- 98
2019-06-22 23:00:00 15.7 0 Calma 6 Nordeste 0 -- -- 92
2019-06-22 22:00:00 17.2 0 Calma 10 Este 0 -- -- 86
2019-06-22 21:00:00 19.7 5 Sudeste 15 Sudeste 0 -- -- 76
2019-06-22 20:00:00 20.9 6 Este 17 Nordeste 0 -- -- 73
2019-06-22 19:00:00 22.2 7 Este 18 Sudeste 0 -- -- 69
2019-06-22 18:00:00 22.8 9 Este 18 Este 0 -- -- 66
2019-06-22 17:00:00 23.8 9 Este 18 Este 0 -- -- 61
2019-06-22 16:00:00 23.6 7 Este 19 Este 0 -- -- 60
2019-06-22 15:00:00 23 6 Sudeste 13 Este 0 -- -- 63
2019-06-22 14:00:00 21.5 4 Sur 19 Este 0 -- -- 68
2019-06-22 13:00:00 21.5 5 Este 15 Este 0 -- -- 67
2019-06-22 12:00:00 21.1 6 Este 13 Este 0 -- -- 68
2019-06-22 11:00:00 19.4 6 Este 18 Este 0 -- -- 74
2019-06-22 10:00:00 18.4 5 Este 13 Nordeste 0 -- -- 75
2019-06-22 09:00:00 16 4 Sudoeste 12 Oeste 0 -- -- 86
2019-06-22 08:00:00 12.9 4 Sudoeste 17 Sudoeste 0 -- -- 99
2019-06-22 07:00:00 11.1 3 Norte 13 Norte 0 -- -- 99
2019-06-22 06:00:00 10.9 2 Norte 5 Norte 0.2 -- -- 100
2019-06-22 05:00:00 10.3 2 Sudoeste 4 Sur 0 -- -- 100
2019-06-22 04:00:00 10.8 0 Calma 10 Noroeste 0 -- -- 98
2019-06-22 03:00:00 11.7 3 Norte 8 Norte 0 -- -- 100
2019-06-22 02:00:00 11.7 2 Este 5 Sudeste 0 -- -- 100
2019-06-22 01:00:00 12.2 0 Calma 4 Sur 0 -- -- 98
2019-06-22 00:00:00 13.2 2 Sudoeste 6 Sudeste 0 -- -- 97
2019-06-21 23:00:00 14.5 0 Calma 9 Norte 0 -- -- 95
2019-06-21 22:00:00 15.5 0 Calma 9 Nordeste 0 -- -- 93
2019-06-21 21:00:00 17.1 0 Calma 6 Norte 0 -- -- 88
2019-06-21 20:00:00 20.2 3 Sur 8 Sudeste 0 -- -- 75
2019-06-21 19:00:00 20.7 3 Sudeste 9 Sudoeste 0 -- -- 71
2019-06-21 18:00:00 21.8 6 Sur 15 Sudoeste 0 -- -- 64
2019-06-21 17:00:00 20.1 5 Sudoeste 11 Sudoeste 0 -- -- 73
2019-06-21 16:00:00 17.9 5 Sudoeste 13 Oeste 0 -- -- 84
2019-06-21 15:00:00 17.5 3 Sudoeste 9 Sur 0 -- -- 90
2019-06-21 14:00:00 17.9 2 Este 9 Noroeste 0 -- -- 82
2019-06-21 13:00:00 16.3 5 Este 12 Nordeste 0.2 -- -- 93
2019-06-21 12:00:00 17.2 4 Oeste 10 Sudoeste 0 -- -- 88
2019-06-21 11:00:00 19.3 2 Sudeste 5 Sudeste 0 -- -- 72
2019-06-21 10:00:00 18.4 0 Calma 4 Este 0 -- -- 75
2019-06-21 09:00:00 15.7 2 Noroeste 4 Norte 0 -- -- 86
2019-06-21 08:00:00 13.9 3 Este 10 Nordeste 0 -- -- 90
2019-06-21 07:00:00 12.1 4 Nordeste 10 Nordeste 0 -- -- 97
2019-06-21 06:00:00 12.4 4 Nordeste 10 Norte 0 -- -- 97
2019-06-21 05:00:00 11.8 0 Calma 5 Sudeste 0 -- -- 100
2019-06-21 04:00:00 12.7 3 Norte 11 Norte 0.2 -- -- 98
2019-06-21 03:00:00 12.4 0 Calma 9 Norte 0 -- -- 100
2019-06-21 02:00:00 12.5 0 Calma 6 Sudeste 0 -- -- 100
2019-06-21 01:00:00 12.6 0 Calma 3 Noroeste 0 -- -- 99
2019-06-21 00:00:00 13.2 0 Calma 4 Sur 0 -- -- 97
2019-06-20 23:00:00 14.6 0 Calma 12 Este 0 -- -- 95
2019-06-20 22:00:00 15.3 7 Este 12 Este 0.2 -- -- 90
2019-06-20 21:00:00 15 3 Sudeste 9 Este 0 -- -- 94
2019-06-20 20:00:00 15.5 5 Este 14 Este 0 -- -- 92
2019-06-20 19:00:00 14.4 5 Este 32 Norte 0 -- -- 94
2019-06-20 18:00:00 19.1 9 Norte 26 Norte 0 -- -- 85
2019-06-20 17:00:00 21.8 8 Este 36 Este 0 -- -- 65
2019-06-20 16:00:00 23.6 8 Este 21 Este 0 -- -- 59
2019-06-20 15:00:00 24.4 8 Este 19 Sur 0 -- -- 56
2019-06-20 14:00:00 24.7 8 Nordeste 23 Este 0 -- -- 54
2019-06-20 13:00:00 23.9 9 Nordeste 22 Nordeste 0 -- -- 57
2019-06-20 12:00:00 22.8 5 Sudeste 19 Este 0 -- -- 57
2019-06-20 11:00:00 22.1 4 Sudeste 14 Sudeste 0 -- -- 63
2019-06-20 10:00:00 21.1 3 Nordeste 10 Nordeste 0 -- -- 66
2019-06-20 09:00:00 17.9 3 Norte 9 Nordeste 0 -- -- 80
2019-06-20 08:00:00 15.8 2 Nordeste 7 Norte 0 -- -- 87
2019-06-20 07:00:00 15.1 4 Este 8 Este 0 -- -- 90
2019-06-20 06:00:00 14.6 0 Calma 7 Este 0 -- -- 93
2019-06-20 05:00:00 15.6 4 Nordeste 8 Norte 0 -- -- 89
2019-06-20 04:00:00 14.8 3 Nordeste 9 Nordeste 0 -- -- 93
2019-06-20 03:00:00 14.1 0 Calma 4 Sur 0 -- -- 96
2019-06-20 02:00:00 13.8 0 Calma 5 Este 0 -- -- 94
2019-06-20 01:00:00 14.5 0 Calma 6 Nordeste 0 -- -- 91
2019-06-20 00:00:00 15.5 3 Este 9 Este 0 -- -- 89
2019-06-19 23:00:00 16.1 3 Este 8 Norte 0 -- -- 85
2019-06-19 22:00:00 17.3 2 Este 7 Nordeste 0 -- -- 79
2019-06-19 21:00:00 20.4 3 Este 12 Este 0 -- -- 68
2019-06-19 20:00:00 21.8 7 Sudeste 19 Sudeste 0 -- -- 63
2019-06-19 19:00:00 22.9 9 Este 26 Este 0 -- -- 60
2019-06-19 18:00:00 24.8 9 Este 27 Este 0 -- -- 56
2019-06-19 17:00:00 25.7 4 Norte 21 Sudeste 0 -- -- 50
2019-06-19 16:00:00 27.7 5 Sur 24 Oeste 0 -- -- 40
2019-06-19 15:00:00 27 6 Sur 24 Sur 0 -- -- 38
2019-06-19 14:00:00 -- -- -- -- -- -- -- -- --
2019-06-19 13:00:00 25.2 5 Este 15 Este 0 -- -- 37
2019-06-19 12:00:00 -- -- -- -- -- -- -- -- --
2019-06-19 11:00:00 22.5 7 Este 14 Nordeste 0 -- -- 39
2019-06-19 10:00:00 18.8 7 Sudoeste 18 Sudoeste 0 -- -- 48
2019-06-19 09:00:00 13.7 6 Sudoeste 24 Sudoeste 0 -- -- 66
2019-06-19 08:00:00 11.2 9 Sudoeste 22 Oeste 0 -- -- 71
2019-06-19 07:00:00 10.4 9 Sudoeste 23 Sudoeste 0 -- -- 75
2019-06-19 06:00:00 9.9 9 Sudoeste 21 Sudoeste 0 -- -- 80
2019-06-19 05:00:00 10.4 7 Sudoeste 18 Oeste 0 -- -- 80
2019-06-19 04:00:00 11.9 10 Sudoeste 29 Oeste 0 -- -- 74
2019-06-19 03:00:00 13 13 Sudoeste 26 Sudoeste 0 -- -- 71
2019-06-19 02:00:00 13.9 12 Sudoeste 30 Sudoeste 0 -- -- 68
2019-06-19 01:00:00 14.9 14 Sudoeste 25 Sudoeste 0 -- -- 63
2019-06-19 00:00:00 16.2 12 Sudoeste 25 Oeste 0 -- -- 56
2019-06-18 23:00:00 18 10 Sudoeste 24 Sudoeste 0 -- -- 51
2019-06-18 22:00:00 19.8 7 Sudoeste 25 Sudoeste 0 -- -- 45
2019-06-18 21:00:00 -- 5 Sudoeste 33 Oeste 0 -- -- --
2019-06-18 20:00:00 24.1 13 Sudoeste 35 Oeste 0 -- -- 36
2019-06-18 19:00:00 26.2 13 Sudoeste 29 Sudoeste 0 -- -- 36
2019-06-18 18:00:00 28.1 11 Sudoeste 28 Oeste 0 -- -- 35
2019-06-18 17:00:00 28.4 10 Sudoeste 33 Sudoeste 0 -- -- 34
2019-06-18 16:00:00 27.9 14 Sudoeste 33 Sudoeste 0 -- -- 35
2019-06-18 15:00:00 27.7 14 Sudoeste 36 Oeste 0 -- -- 33
2019-06-18 14:00:00 27 14 Sudoeste 35 Sudoeste 0 -- -- 36
2019-06-18 13:00:00 26.5 13 Sudoeste 30 Sudoeste 0 -- -- 37
2019-06-18 12:00:00 25 12 Sudoeste 30 Sudoeste 0 -- -- 40
2019-06-18 11:00:00 23.3 12 Sudoeste 31 Oeste 0 -- -- 43
2019-06-18 10:00:00 19.5 12 Sudoeste 28 Oeste 0 -- -- 61
2019-06-18 09:00:00 13.4 6 Sudoeste 17 Sudoeste 0 -- -- 87
2019-06-18 08:00:00 12.1 7 Sudoeste 13 Sudoeste 0 -- -- 93
2019-06-18 07:00:00 11 5 Sur 11 Oeste 0 -- -- 98
2019-06-18 06:00:00 10.7 6 Sudoeste 13 Sudoeste 0 -- -- 98
2019-06-18 05:00:00 11.3 7 Sudoeste 14 Sudoeste 0 -- -- 96
2019-06-18 04:00:00 11.6 5 Sudoeste 12 Sudoeste 0 -- -- 96
2019-06-18 03:00:00 11.7 4 Sudoeste 11 Sudoeste 0 -- -- 96
2019-06-18 02:00:00 11.6 0 Calma 2 Sur 0 -- -- 97
2019-06-18 01:00:00 11.7 0 Calma 0 Calma 0 -- -- 95
2019-06-18 00:00:00 12.4 0 Calma 0 Calma 0 -- -- 91
2019-06-17 23:00:00 13.7 0 Calma 2 Sur 0 -- -- 85
2019-06-17 22:00:00 16 0 Calma 4 Noroeste 0 -- -- 79
2019-06-17 21:00:00 19.7 0 Calma 11 Este 0 -- -- 66
2019-06-17 20:00:00 22 5 Sudeste 15 Sudeste 0 -- -- 52
2019-06-17 19:00:00 23.4 7 Este 19 Sudeste 0 -- -- 50
2019-06-17 18:00:00 24.4 8 Sudeste 23 Este 0 -- -- 51
2019-06-17 17:00:00 25.4 11 Este 21 Este 0 -- -- 49
2019-06-17 16:00:00 26.7 8 Nordeste 25 Nordeste 0 -- -- 47
2019-06-17 15:00:00 26.4 8 Este 20 Este 0 -- -- 40
2019-06-17 14:00:00 26.1 6 Este 21 Este 0 -- -- 44
2019-06-17 13:00:00 25.7 5 Este 18 Oeste 0 -- -- 41
2019-06-17 12:00:00 24.6 5 Oeste 17 Oeste 0 -- -- 46
2019-06-17 11:00:00 22.9 0 Calma 2 Oeste 0 -- -- 51
2019-06-17 10:00:00 19.6 0 Calma 0 Calma 0 -- -- 70
2019-06-17 09:00:00 15.8 0 Calma 0 Calma 0 -- -- 85
2019-06-17 08:00:00 12.3 0 Calma 0 Calma 0 -- -- 100
2019-06-17 07:00:00 9 0 Calma 0 Calma 0 -- -- 100
2019-06-17 06:00:00 8.9 0 Calma 0 Calma 0 -- -- 100
2019-06-17 05:00:00 8.9 0 Calma 0 Calma 0 -- -- 99
2019-06-17 04:00:00 9.5 0 Calma 0 Calma 0 -- -- 100
2019-06-17 03:00:00 9.9 0 Calma 2 Sur 0 -- -- 98
2019-06-17 02:00:00 10.7 0 Calma 0 Calma 0 -- -- 97
2019-06-17 01:00:00 11.5 0 Calma 0 Calma 0 -- -- 94
2019-06-17 00:00:00 13 0 Calma 5 Nordeste 0 -- -- 91
2019-06-16 23:00:00 14.5 0 Calma 10 Este 0 -- -- 86
2019-06-16 22:00:00 15.8 0 Calma 6 Sudeste 0 -- -- 80
2019-06-16 21:00:00 18.9 2 Nordeste 9 Sudeste 0 -- -- 69
2019-06-16 20:00:00 20.4 6 Sudeste 19 Este 0 -- -- 61
2019-06-16 19:00:00 22.7 6 Este 17 Este 0 -- -- 55
2019-06-16 18:00:00 24.4 8 Este 19 Este 0 -- -- 49
2019-06-16 17:00:00 23.9 5 Nordeste 14 Sudeste 0 -- -- 51
2019-06-16 16:00:00 22.8 5 Este 14 Nordeste 0 -- -- 53
2019-06-16 15:00:00 22.9 8 Este 20 Este 0 -- -- 57
2019-06-16 14:00:00 21.9 3 Sur 9 Sudoeste 0 -- -- 58
2019-06-16 13:00:00 20.1 3 Norte 8 Nordeste 0 -- -- 62
2019-06-16 12:00:00 18.4 0 Calma 5 Este 0 -- -- 69
2019-06-16 11:00:00 18.5 2 Sudeste 8 Oeste 0 -- -- 66
2019-06-16 10:00:00 17.9 2 Sudeste 12 Sudoeste 0 -- -- 66
2019-06-16 09:00:00 15.1 5 Sudoeste 13 Sudoeste 0 -- -- 84
2019-06-16 08:00:00 12 3 Noroeste 7 Norte 0 -- -- 91
2019-06-16 07:00:00 10.1 3 Este 10 Nordeste 0 -- -- 93
2019-06-16 06:00:00 10.8 4 Nordeste 10 Norte 0 -- -- 92
2019-06-16 05:00:00 11 0 Calma 0 Calma 0 -- -- 100
2019-06-16 04:00:00 10.6 0 Calma 0 Calma 0 -- -- 99
2019-06-16 03:00:00 11.5 0 Calma 6 Norte 0 -- -- 97
2019-06-16 02:00:00 11.6 0 Calma 4 Sudoeste 0 -- -- 97
2019-06-16 01:00:00 12.5 0 Calma 4 Sur 0 -- -- 94
2019-06-16 00:00:00 13.8 2 Este 6 Este 0 -- -- 89
2019-06-15 23:00:00 14.4 0 Calma 6 Este 0 -- -- 86
2019-06-15 22:00:00 15.6 3 Nordeste 13 Sudeste 0 -- -- 78
2019-06-15 21:00:00 16.2 5 Sudeste 13 Este 0 -- -- 76
2019-06-15 20:00:00 17 6 Sudeste 15 Sudeste 0 -- -- 77
2019-06-15 19:00:00 17.8 7 Sudeste 21 Este 0 -- -- 75
2019-06-15 18:00:00 19.6 10 Este 27 Este 0 -- -- 70
2019-06-15 17:00:00 19.8 8 Este 25 Este 0 -- -- 70
2019-06-15 16:00:00 20.7 5 Sur 27 Este 0 -- -- 71
2019-06-15 15:00:00 20.7 7 Este 22 Sur 0 -- -- 68
2019-06-15 14:00:00 20.7 5 Sudeste 22 Este 0 -- -- 69
2019-06-15 13:00:00 20.3 7 Este 17 Este 0 -- -- 70
2019-06-15 12:00:00 19 8 Este 16 Este 0 -- -- 71
2019-06-15 11:00:00 17.9 5 Este 14 Este 0 -- -- 74
2019-06-15 10:00:00 16.6 8 Este 16 Nordeste 0 -- -- 77
2019-06-15 09:00:00 16.1 3 Norte 9 Este 0 -- -- 79
2019-06-15 08:00:00 12.2 4 Nordeste 10 Norte 0 -- -- 90
2019-06-15 07:00:00 10.3 5 Este 14 Nordeste 0 -- -- 96
2019-06-15 06:00:00 10.3 4 Nordeste 9 Nordeste 0 -- -- 98
2019-06-15 05:00:00 9.3 0 Calma 5 Este 0 -- -- 100
2019-06-15 04:00:00 9.1 0 Calma 0 Calma 0 -- -- 98
2019-06-15 03:00:00 9.8 0 Calma 0 Calma 0 -- -- 96
2019-06-15 02:00:00 11 0 Calma 0 Calma 0 -- -- 95
2019-06-15 01:00:00 12.2 0 Calma 4 Norte 0 -- -- 93
2019-06-15 00:00:00 12.8 3 Este 10 Este 0 -- -- 91
2019-06-14 23:00:00 13.7 0 Calma 4 Sudeste 0 -- -- 87
2019-06-14 22:00:00 15.4 0 Calma 4 Nordeste 0 -- -- 80
2019-06-14 21:00:00 18.7 3 Norte 11 Sur 0 -- -- 70
2019-06-14 20:00:00 21.4 6 Sur 24 Sudoeste 0 -- -- 56
2019-06-14 19:00:00 23 9 Sudoeste 22 Oeste 0 -- -- 51
2019-06-14 18:00:00 23.5 10 Sudoeste 30 Oeste 0 -- -- 50
2019-06-14 17:00:00 -- 13 Sudoeste 26 Sudoeste 0 -- -- --
2019-06-14 16:00:00 21.4 3 Sur 24 Sudeste 0 -- -- 60
2019-06-14 15:00:00 21 9 Este 18 Este 0 -- -- 61
2019-06-14 14:00:00 21 4 Este 10 Nordeste 0 -- -- 61
2019-06-14 13:00:00 19.6 5 Sur 26 Nordeste 0 -- -- 60
2019-06-14 12:00:00 17.5 14 Nordeste 28 Nordeste 0.2 -- -- 67
2019-06-14 11:00:00 18.9 12 Este 27 Nordeste 0 -- -- 65
2019-06-14 10:00:00 18.6 9 Este 18 Sudeste 0 -- -- 66
2019-06-14 09:00:00 17.1 9 Este 17 Nordeste 0 -- -- 69
2019-06-14 08:00:00 12.7 5 Nordeste 16 Norte 0 -- -- 95
2019-06-14 07:00:00 12.1 5 Nordeste 13 Nordeste 0.4 -- -- 95
2019-06-14 06:00:00 11.7 6 Nordeste 18 Nordeste 0.4 -- -- 89
2019-06-14 05:00:00 11.5 7 Nordeste 19 Norte 0 -- -- 80
2019-06-14 04:00:00 10.1 5 Nordeste 13 Nordeste 0 -- -- 84
2019-06-14 03:00:00 10 4 Sudoeste 13 Nordeste 0 -- -- 84
2019-06-14 02:00:00 10.8 5 Nordeste 14 Norte 0 -- -- 77
2019-06-14 01:00:00 9 0 Calma 0 Calma 0 -- -- 92
2019-06-14 00:00:00 9.5 0 Calma 0 Calma 0 -- -- 91
2019-06-13 23:00:00 10.3 0 Calma 4 Sur 0 -- -- 86
2019-06-13 22:00:00 11.8 2 Sudeste 9 Nordeste 0 -- -- 76
2019-06-13 21:00:00 15 3 Nordeste 11 Nordeste 0 -- -- 66
2019-06-13 20:00:00 16.6 6 Este 18 Sudeste 0 -- -- 56
2019-06-13 19:00:00 18.3 7 Nordeste 15 Nordeste 0 -- -- 52
2019-06-13 18:00:00 19 8 Nordeste 22 Sudeste 0 -- -- 53
2019-06-13 17:00:00 20.6 7 Este 24 Este 0 -- -- 50
2019-06-13 16:00:00 21.6 7 Sudeste 23 Este 0 -- -- 46
2019-06-13 15:00:00 21.5 8 Este 20 Sur 0 -- -- 39
2019-06-13 14:00:00 21.7 5 Este 20 Oeste 0 -- -- 40
2019-06-13 13:00:00 21.1 9 Oeste 18 Oeste 0 -- -- 39
2019-06-13 12:00:00 20.2 8 Sudoeste 18 Sudoeste 0 -- -- 37
2019-06-13 11:00:00 18.8 9 Sudoeste 18 Oeste 0 -- -- 39
2019-06-13 10:00:00 14.7 5 Sudoeste 11 Sudoeste 0 -- -- 69
2019-06-13 09:00:00 10.1 5 Sudoeste 10 Sudoeste 0 -- -- 89
2019-06-13 08:00:00 7.3 6 Sudoeste 13 Noroeste 0 -- -- 100
2019-06-13 07:00:00 7.2 6 Oeste 14 Oeste 0 -- -- 100
2019-06-13 06:00:00 7.6 7 Oeste 16 Oeste 0 -- -- 100
2019-06-13 05:00:00 8.1 4 Oeste 12 Sudoeste 0 -- -- 97
2019-06-13 04:00:00 8.1 4 Norte 9 Noroeste 0 -- -- 94
2019-06-13 03:00:00 8.8 4 Sudoeste 9 Oeste 0 -- -- 99
2019-06-13 02:00:00 8.7 0 Calma 2 Sudoeste 0 -- -- 100
2019-06-13 01:00:00 8.7 0 Calma 3 Sudeste 0 -- -- 96
2019-06-13 00:00:00 10.8 0 Calma 5 Este 0 -- -- 93
2019-06-12 23:00:00 11.8 0 Calma 15 Este 0 -- -- 94
2019-06-12 22:00:00 12 7 Sudeste 16 Este 0 -- -- 92
2019-06-12 21:00:00 12.9 6 Sudeste 19 Este 0 -- -- 85
2019-06-12 20:00:00 14.8 9 Este 20 Sudoeste 0 -- -- 75
2019-06-12 19:00:00 18.2 6 Oeste 22 Sudoeste 0 -- -- 42
2019-06-12 18:00:00 18.5 9 Sudoeste 29 Oeste 0.2 -- -- 39
2019-06-12 17:00:00 18.4 12 Sudoeste 26 Oeste 0.4 -- -- 42
2019-06-12 16:00:00 17.8 9 Sudoeste 27 Oeste 0.4 -- -- 48
2019-06-12 15:00:00 16.7 8 Sudoeste 25 Oeste 0.6 -- -- 57
2019-06-12 14:00:00 14.4 9 Oeste 26 Oeste 0.6 -- -- 66
2019-06-12 13:00:00 14 8 Oeste 25 Oeste 0.4 -- -- 68
2019-06-12 12:00:00 11.7 10 Sudoeste 20 Sudoeste 0.4 -- -- 76
2019-06-12 11:00:00 10.3 9 Sudoeste 17 Sudoeste 0.4 -- -- 81
2019-06-12 10:00:00 9.1 7 Sudoeste 17 Sudoeste 0.2 -- -- 85
2019-06-12 09:00:00 7.9 8 Sudoeste 15 Sudoeste 0.2 -- -- 95
2019-06-12 08:00:00 5.1 3 Sur 8 Noroeste 0.4 -- -- 100
2019-06-12 07:00:00 3 2 Norte 13 Sudoeste 0.2 -- -- 100
2019-06-12 06:00:00 3.3 4 Sudoeste 18 Oeste 0.2 -- -- 100
2019-06-12 05:00:00 3.8 4 Oeste 18 Sudoeste 0.2 -- -- 100
2019-06-12 04:00:00 4.3 4 Sudoeste 10 Oeste 0.4 -- -- 100
2019-06-12 03:00:00 5.2 4 Sudoeste 19 Sudoeste 0.2 -- -- 100
2019-06-12 02:00:00 6.1 8 Oeste 20 Oeste 0.4 -- -- 100
2019-06-12 01:00:00 6.6 4 Norte 10 Norte 0.4 -- -- 100
2019-06-12 00:00:00 7.2 4 Oeste 11 Sudoeste 0.4 -- -- 100
2019-06-11 23:00:00 7.6 0 Calma 6 Sur 0.4 -- -- 99
2019-06-11 22:00:00 8 2 Sudeste 6 Sudeste 0.6 -- -- 98
2019-06-11 21:00:00 8.8 2 Sudeste 8 Nordeste 0.4 -- -- 99
2019-06-11 20:00:00 9 0 Calma 5 Sudeste 0.6 -- -- 100
2019-06-11 19:00:00 8.9 3 Sudeste 9 Sur 0.6 -- -- 100
2019-06-11 18:00:00 8.6 3 Sudeste 10 Nordeste 0.8 -- -- 100
2019-06-11 17:00:00 8.9 5 Este 15 Este 0.8 -- -- 99
2019-06-11 16:00:00 9.5 4 Este 10 Este 0.8 -- -- 98
2019-06-11 15:00:00 9.8 0 Calma 6 Sudoeste 0.8 -- -- 96
2019-06-11 14:00:00 9.9 0 Calma 6 Nordeste 1 -- -- 97
2019-06-11 13:00:00 9.8 0 Calma 5 Sudoeste 1 -- -- 97
2019-06-11 12:00:00 9.6 2 Oeste 7 Sudoeste 1 -- -- 98
2019-06-11 11:00:00 9.1 3 Sudoeste 11 Sudoeste 1.2 -- -- 98
2019-06-11 10:00:00 8.7 7 Oeste 17 Oeste 0.8 -- -- 96
2019-06-11 09:00:00 8.8 6 Oeste 17 Oeste 0.8 -- -- 97
2019-06-11 08:00:00 8.7 3 Sudoeste 18 Oeste 0.4 -- -- 98
2019-06-11 07:00:00 9.4 6 Oeste 12 Sudoeste 1.2 -- -- 94
2019-06-11 06:00:00 10.4 2 Sudoeste 7 Oeste 0.2 -- -- 94
2019-06-11 05:00:00 10.2 2 Sudoeste 6 Sudoeste 0 -- -- 98
2019-06-11 04:00:00 9.8 0 Calma 3 Sur 0 -- -- 95
2019-06-11 03:00:00 10.9 0 Calma 5 Sudeste 0 -- -- 93
2019-06-11 02:00:00 11.7 0 Calma 5 Este 0 -- -- 89
2019-06-11 01:00:00 12.3 0 Calma 7 Nordeste 0 -- -- 84
2019-06-11 00:00:00 12.7 3 Este 8 Nordeste 0 -- -- 82
2019-06-10 23:00:00 13.3 4 Sudeste 12 Este 0 -- -- 78
2019-06-10 22:00:00 14.3 5 Este 16 Sudeste 0 -- -- 74
2019-06-10 21:00:00 15.2 5 Sudeste 17 Este 0 -- -- 72
2019-06-10 20:00:00 16.2 9 Este 24 Este 0 -- -- 70
2019-06-10 19:00:00 17.6 6 Este 19 Este 0 -- -- 66
2019-06-10 18:00:00 18.9 9 Este 19 Sudeste 0 -- -- 62
2019-06-10 17:00:00 19.3 8 Nordeste 30 Nordeste 0 -- -- 58
2019-06-10 16:00:00 22 13 Nordeste 30 Este 0 -- -- 51
2019-06-10 15:00:00 22.3 10 Sudoeste 28 Sudoeste 0 -- -- 50
2019-06-10 14:00:00 21 10 Oeste 21 Sudoeste 0 -- -- 51
2019-06-10 13:00:00 21.6 8 Este 23 Nordeste 0 -- -- 54
2019-06-10 12:00:00 20.8 6 Sur 15 Sur 0 -- -- 55
2019-06-10 11:00:00 19.1 6 Oeste 17 Sudoeste 0 -- -- 62
2019-06-10 10:00:00 18.5 5 Sudoeste 10 Sudoeste 0 -- -- 64
2019-06-10 09:00:00 16.1 0 Calma 7 Nordeste 0 -- -- 72
2019-06-10 08:00:00 13.2 5 Nordeste 9 Norte 0 -- -- 83
2019-06-10 07:00:00 11.7 4 Este 13 Este 0 -- -- 85
2019-06-10 06:00:00 10.9 6 Este 9 Sudeste 0 -- -- 92
2019-06-10 05:00:00 9.1 2 Sudeste 6 Sur 0 -- -- 97
2019-06-10 04:00:00 9.8 2 Sur 6 Sudoeste 0 -- -- 98
2019-06-10 03:00:00 10.2 2 Sudoeste 6 Oeste 0 -- -- 97
2019-06-10 02:00:00 10.9 2 Sur 9 Sur 0 -- -- 93
2019-06-10 01:00:00 12.3 0 Calma 5 Noroeste 0 -- -- 90
2019-06-10 00:00:00 14.1 0 Calma 13 Este 0 -- -- 84
2019-06-09 23:00:00 14.4 0 Calma 8 Este 0 -- -- 83
2019-06-09 22:00:00 15.2 4 Sudeste 13 Nordeste 0 -- -- 78
2019-06-09 21:00:00 17.5 4 Sur 14 Este 0 -- -- 67
2019-06-09 20:00:00 18.1 5 Sudeste 11 Norte 0 -- -- 67
2019-06-09 19:00:00 18.6 5 Este 20 Este 0 -- -- 62
2019-06-09 18:00:00 20.8 7 Este 17 Este 0 -- -- 43
2019-06-09 17:00:00 21.6 9 Este 15 Este 0 -- -- 39
2019-06-09 16:00:00 20.2 6 Sudeste 22 Sudeste 0 -- -- 40
2019-06-09 15:00:00 20.9 4 Norte 13 Este 0 -- -- 38
2019-06-09 14:00:00 20.9 5 Este 11 Sur 0 -- -- 39
2019-06-09 13:00:00 21 4 Este 12 Este 0 -- -- 41
2019-06-09 12:00:00 20.3 3 Sur 12 Sur 0 -- -- 51
2019-06-09 11:00:00 18.4 5 Este 17 Sudeste 0 -- -- 52
2019-06-09 10:00:00 17.9 3 Norte 13 Norte 0 -- -- 59
2019-06-09 09:00:00 14.4 4 Nordeste 14 Este 0 -- -- 79
2019-06-09 08:00:00 13.1 4 Norte 10 Nordeste 0 -- -- 81
2019-06-09 07:00:00 12.4 4 Nordeste 13 Nordeste 0 -- -- 83
2019-06-09 06:00:00 12.4 0 Calma 0 Calma 0 -- -- 81
2019-06-09 05:00:00 11.2 0 Calma 0 Calma 0 -- -- 82
2019-06-09 04:00:00 10.3 0 Calma 0 Calma 0 -- -- 82
2019-06-09 03:00:00 10.8 0 Calma 4 Oeste 0 -- -- 78
2019-06-09 02:00:00 11.2 0 Calma 4 Sudoeste 0 -- -- 73
2019-06-09 01:00:00 11.1 0 Calma 4 Sudoeste 0 -- -- 77
2019-06-09 00:00:00 11.2 0 Calma 6 Sudeste 0 -- -- 76
2019-06-08 23:00:00 11.2 2 Este 8 Nordeste 0 -- -- 70
2019-06-08 22:00:00 11.8 3 Este 5 Sudeste 0 -- -- 67
2019-06-08 21:00:00 15.3 0 Calma 9 Este 0 -- -- 59
2019-06-08 20:00:00 17.4 6 Sudeste 18 Este 0 -- -- 44
2019-06-08 19:00:00 18.8 8 Este 21 Este 0 -- -- 41
2019-06-08 18:00:00 20 7 Este 22 Sudeste 0 -- -- 42
2019-06-08 17:00:00 20.6 9 Este 23 Este 0 -- -- 44
2019-06-08 16:00:00 20.9 8 Este 25 Nordeste 0 -- -- 46
2019-06-08 15:00:00 20.4 7 Este 22 Nordeste 0 -- -- 48
2019-06-08 14:00:00 19.9 6 Este 27 Nordeste 0 -- -- 50
2019-06-08 13:00:00 20.3 8 Este 25 Este 0 -- -- 48
2019-06-08 12:00:00 20.6 6 Sur 14 Este 0 -- -- 45
2019-06-08 11:00:00 19 6 Este 13 Este 0 -- -- 50
2019-06-08 10:00:00 16.6 5 Sudoeste 12 Oeste 0 -- -- 57
2019-06-08 09:00:00 13.4 4 Norte 10 Norte 0 -- -- 67
2019-06-08 08:00:00 10.2 3 Nordeste 12 Norte 0 -- -- 75
2019-06-08 07:00:00 6.6 2 Este 9 Nordeste 0 -- -- 88
2019-06-08 06:00:00 6.5 4 Nordeste 10 Este 0 -- -- 89
2019-06-08 05:00:00 6.6 3 Este 9 Nordeste 0 -- -- 89
2019-06-08 04:00:00 7.3 4 Nordeste 8 Nordeste 0 -- -- 87
2019-06-08 03:00:00 7.5 3 Este 9 Nordeste 0 -- -- 88
2019-06-08 02:00:00 8.1 4 Nordeste 10 Nordeste 0 -- -- 87
2019-06-08 01:00:00 8.7 2 Este 9 Nordeste 0 -- -- 84
2019-06-08 00:00:00 9.7 4 Este 10 Norte 0 -- -- 82
2019-06-07 23:00:00 10.3 5 Este 10 Nordeste 0 -- -- 79
2019-06-07 22:00:00 12.8 5 Nordeste 13 Norte 0 -- -- 69
2019-06-07 21:00:00 15.8 9 Este 20 Este 0 -- -- 60
2019-06-07 20:00:00 18.8 11 Nordeste 26 Oeste 0 -- -- 51
2019-06-07 19:00:00 21.3 6 Sudoeste 24 Oeste 0 -- -- 27
2019-06-07 18:00:00 22.2 9 Sudoeste 27 Sudoeste 0 -- -- 35
2019-06-07 17:00:00 22.8 10 Oeste 34 Sudoeste 0 -- -- 38
2019-06-07 16:00:00 22.5 9 Sur 36 Sudoeste 0 -- -- 42
2019-06-07 15:00:00 21.9 16 Sudoeste 36 Oeste 0 -- -- 43
2019-06-07 14:00:00 21.6 17 Sudoeste 38 Oeste 0 -- -- 48
2019-06-07 13:00:00 20.6 12 Sudoeste 40 Sudoeste 0 -- -- 52
2019-06-07 12:00:00 18.8 16 Sudoeste 42 Oeste 0 -- -- 62
2019-06-07 11:00:00 17.2 13 Sudoeste 37 Sudoeste 0 -- -- 65
2019-06-07 10:00:00 15.8 11 Sudoeste 32 Sudoeste 0 -- -- 68
2019-06-07 09:00:00 14.2 11 Sudoeste 24 Sudoeste 0 -- -- 73
2019-06-07 08:00:00 9.3 5 Sudoeste 13 Oeste 0 -- -- 93
2019-06-07 07:00:00 7.7 2 Sudeste 5 Sur 0 -- -- 95
2019-06-07 06:00:00 7.6 2 Sur 10 Sudoeste 0 -- -- 96
2019-06-07 05:00:00 7.8 4 Sudoeste 11 Sudoeste 0 -- -- 97
2019-06-07 04:00:00 7.9 4 Sudoeste 8 Sudoeste 0 -- -- 100
2019-06-07 03:00:00 7.3 0 Calma 4 Oeste 0 -- -- 98
2019-06-07 02:00:00 7.4 0 Calma 3 Norte 0 -- -- 97
2019-06-07 01:00:00 7.5 0 Calma 3 Sur 0 -- -- 95
2019-06-07 00:00:00 8.5 0 Calma 2 Sur 0 -- -- 89
2019-06-06 23:00:00 11 0 Calma 11 Sudoeste 0 -- -- 79
2019-06-06 22:00:00 13.6 5 Sudoeste 16 Sudoeste 0 -- -- 69
2019-06-06 21:00:00 15 9 Sur 29 Sudoeste 0 -- -- 62
2019-06-06 20:00:00 16.4 14 Sudoeste 30 Sudoeste 0 -- -- 55
2019-06-06 19:00:00 17.2 10 Sur 24 Sudoeste 0 -- -- 56
2019-06-06 18:00:00 16.8 10 Sudoeste 26 Sudoeste 0 -- -- 62
2019-06-06 17:00:00 15.9 6 Sudoeste 23 Sudoeste 0 -- -- 65
2019-06-06 16:00:00 17.4 10 Sudoeste 28 Oeste 0 -- -- 53
2019-06-06 15:00:00 19.3 12 Sudoeste 32 Oeste 0 -- -- 45
2019-06-06 14:00:00 19.1 10 Sudoeste 34 Sur 0 -- -- 49
2019-06-06 13:00:00 18.1 10 Sudoeste 29 Oeste 0 -- -- 48
2019-06-06 12:00:00 -- 10 Oeste 26 Oeste 0 -- -- --
2019-06-06 11:00:00 15.1 11 Sudoeste 25 Oeste 0 -- -- 60
2019-06-06 10:00:00 13.3 12 Sudoeste 28 Sudoeste 0 -- -- 68
2019-06-06 09:00:00 11.3 12 Sudoeste 24 Sudoeste 0 -- -- 73
2019-06-06 08:00:00 8.4 12 Sudoeste 22 Oeste 0 -- -- 86
2019-06-06 07:00:00 6.6 6 Sudoeste 22 Sudoeste 0 -- -- 94
2019-06-06 06:00:00 6.8 8 Sudoeste 17 Sudoeste 0 -- -- 95
2019-06-06 05:00:00 7.3 6 Sudoeste 15 Oeste 0 -- -- 92
2019-06-06 04:00:00 8 4 Sudoeste 10 Sudoeste 0 -- -- 88
2019-06-06 03:00:00 9.4 6 Sudoeste 15 Sudoeste 0 -- -- 83
2019-06-06 02:00:00 9 2 Sudoeste 7 Sudoeste 0 -- -- 92
2019-06-06 01:00:00 10.4 0 Calma 6 Sudeste 0 -- -- 93
2019-06-06 00:00:00 10.9 2 Sudeste 5 Sudeste 0 -- -- 91
2019-06-05 23:00:00 11.7 2 Nordeste 9 Este 0 -- -- 84
2019-06-05 22:00:00 13 5 Este 15 Sudeste 0 -- -- 81
2019-06-05 21:00:00 13.9 8 Este 18 Este 0 -- -- 78
2019-06-05 20:00:00 15.7 8 Este 15 Este 0 -- -- 73
2019-06-05 19:00:00 18.1 6 Sur 27 Sudoeste 0 -- -- 61
2019-06-05 18:00:00 17 14 Sudoeste 40 Sudoeste 0 -- -- 59
2019-06-05 17:00:00 19.2 14 Sudoeste 30 Sudoeste 0 -- -- 58
2019-06-05 16:00:00 21.7 11 Oeste 29 Oeste 0 -- -- 56
2019-06-05 15:00:00 21.2 12 Oeste 28 Sudoeste 0 -- -- 53
2019-06-05 14:00:00 20.5 6 Norte 19 Oeste 0 -- -- 46
2019-06-05 13:00:00 21.2 4 Norte 18 Este 0 -- -- 55
2019-06-05 12:00:00 20.7 7 Sur 18 Este 0 -- -- 54
2019-06-05 11:00:00 20.8 5 Sur 11 Sudoeste 0 -- -- 52
2019-06-05 10:00:00 18.9 3 Este 7 Este 0 -- -- 54
2019-06-05 09:00:00 15.3 3 Nordeste 13 Nordeste 0 -- -- 60
2019-06-05 08:00:00 10.6 6 Nordeste 14 Nordeste 0 -- -- 65
2019-06-05 07:00:00 8.4 6 Este 12 Nordeste 0 -- -- 71
2019-06-05 06:00:00 8.5 7 Este 15 Norte 0 -- -- 72
2019-06-05 05:00:00 8.4 6 Este 10 Norte 0 -- -- 77
2019-06-05 04:00:00 7 2 Sur 4 Este 0 -- -- 93
2019-06-05 03:00:00 7.6 0 Calma 5 Sur 0 -- -- 92
2019-06-05 02:00:00 8.6 0 Calma 6 Norte 0 -- -- 89
2019-06-05 01:00:00 10.3 0 Calma 7 Norte 0 -- -- 85
2019-06-05 00:00:00 11.6 2 Norte 6 Nordeste 0 -- -- 81
2019-06-04 23:00:00 13.4 0 Calma 8 Nordeste 0 -- -- 74
2019-06-04 22:00:00 16 0 Calma 5 Norte 0 -- -- 65
2019-06-04 21:00:00 20.6 2 Sudoeste 21 Oeste 0 -- -- 47
2019-06-04 20:00:00 23.2 8 Sudoeste 23 Sudoeste 0 -- -- 43
2019-06-04 19:00:00 24.9 13 Sudoeste 30 Sudoeste 0 -- -- 34
2019-06-04 18:00:00 25.8 11 Sudoeste 30 Oeste 0 -- -- 35
2019-06-04 17:00:00 26.4 12 Oeste 29 Sudoeste 0 -- -- 35
2019-06-04 16:00:00 25.9 12 Sudoeste 31 Oeste 0 -- -- 35
2019-06-04 15:00:00 25.8 12 Sudoeste 34 Sur 0 -- -- 35
2019-06-04 14:00:00 24.9 14 Sudoeste 39 Oeste 0 -- -- 36
2019-06-04 13:00:00 24.5 13 Sudoeste 32 Sudoeste 0 -- -- 37
2019-06-04 12:00:00 23.4 15 Sudoeste 28 Sudoeste 0 -- -- 37
2019-06-04 11:00:00 21.9 14 Sudoeste 29 Sudoeste 0 -- -- 36
2019-06-04 10:00:00 19.8 13 Sudoeste 23 Oeste 0 -- -- 43
2019-06-04 09:00:00 16 9 Sudoeste 19 Sudoeste 0 -- -- 60
2019-06-04 08:00:00 11.5 9 Sudoeste 16 Sudoeste 0 -- -- 82
2019-06-04 07:00:00 9.6 7 Sudoeste 17 Oeste 0 -- -- 88
2019-06-04 06:00:00 10.4 8 Sudoeste 18 Oeste 0 -- -- 84
2019-06-04 05:00:00 10.7 8 Sudoeste 17 Sudoeste 0 -- -- 84
2019-06-04 04:00:00 11 9 Sudoeste 18 Sudoeste 0 -- -- 82
2019-06-04 03:00:00 12.2 9 Sudoeste 21 Oeste 0 -- -- 76
2019-06-04 02:00:00 12.6 9 Sudoeste 27 Oeste 0 -- -- 74
2019-06-04 01:00:00 13.5 11 Sudoeste 24 Sudoeste 0 -- -- 68
2019-06-04 00:00:00 13.9 9 Sudoeste 20 Sudoeste 0 -- -- 65
2019-06-03 23:00:00 15.7 7 Sudoeste 19 Sudoeste 0 -- -- 57
2019-06-03 22:00:00 17.6 6 Sudoeste 17 Oeste 0 -- -- 51
2019-06-03 21:00:00 20.5 8 Sudoeste 29 Sudoeste 0 -- -- 44
2019-06-03 20:00:00 22.9 12 Sudoeste 22 Sudoeste 0 -- -- 41
2019-06-03 19:00:00 24.3 5 Sur 25 Oeste 0 -- -- 53
2019-06-03 18:00:00 24.7 6 Sur 15 Oeste 0 -- -- 42
2019-06-03 17:00:00 25.3 6 Sudeste 23 Sudoeste 0 -- -- 42
2019-06-03 16:00:00 27.1 12 Sudoeste 28 Sudoeste 0 -- -- 34
2019-06-03 15:00:00 25.7 10 Sudoeste 26 Sudoeste 0 -- -- 38
2019-06-03 14:00:00 24.7 12 Sudoeste 25 Sur 0 -- -- 38
2019-06-03 13:00:00 22.7 9 Sudoeste 23 Sudoeste 0 -- -- 41
2019-06-03 12:00:00 22 9 Sudoeste 27 Oeste 0 -- -- 47
2019-06-03 11:00:00 22.5 5 Sudeste 16 Sudoeste 0 -- -- 56
2019-06-03 10:00:00 20.2 9 Sudoeste 18 Oeste 0 -- -- 58
2019-06-03 09:00:00 16.1 9 Sudoeste 20 Sudoeste 0 -- -- 70
2019-06-03 08:00:00 13 6 Sudoeste 19 Sudoeste 0 -- -- 84
2019-06-03 07:00:00 10.6 8 Sudoeste 21 Sudoeste 0 -- -- 94
2019-06-03 06:00:00 11 11 Sudoeste 26 Oeste 0 -- -- 93
2019-06-03 05:00:00 11.5 10 Sudoeste 26 Oeste 0 -- -- 92
2019-06-03 04:00:00 11.9 9 Sudoeste 22 Oeste 0 -- -- 91
2019-06-03 03:00:00 12.8 9 Sudoeste 24 Sudoeste 0 -- -- 87
2019-06-03 02:00:00 13.6 8 Sudoeste 26 Oeste 0 -- -- 84
2019-06-03 01:00:00 14.4 10 Sudoeste 20 Sudoeste 0 -- -- 81
2019-06-03 00:00:00 15.3 7 Sudoeste 23 Oeste 0 -- -- 77
2019-06-02 23:00:00 16.9 10 Sudoeste 21 Sudoeste 0 -- -- 70
2019-06-02 22:00:00 17.5 7 Sudoeste 16 Sudoeste 0 -- -- 75
2019-06-02 21:00:00 18.7 3 Sur 6 Oeste 0 -- -- 80
2019-06-02 20:00:00 20.5 2 Noroeste 8 Nordeste 0 -- -- 74
2019-06-02 19:00:00 21.9 4 Nordeste 11 Nordeste 0 -- -- 65
2019-06-02 18:00:00 23.6 5 Este 16 Nordeste 0 -- -- 58
2019-06-02 17:00:00 26.7 7 Nordeste 19 Nordeste 0 -- -- 46
2019-06-02 16:00:00 26.4 6 Sudeste 19 Este 0 -- -- 44
2019-06-02 15:00:00 26 6 Este 20 Este 0 -- -- 48
2019-06-02 14:00:00 25.3 7 Sudeste 21 Sudeste 0 -- -- 49
2019-06-02 13:00:00 24.9 7 Este 15 Nordeste 0 -- -- 49
2019-06-02 12:00:00 24.8 3 Oeste 17 Oeste 0 -- -- 53
2019-06-02 11:00:00 22.4 10 Sudoeste 17 Sudoeste 0 -- -- 52
2019-06-02 10:00:00 19.6 7 Sudoeste 15 Oeste 0 -- -- 61
2019-06-02 09:00:00 15.1 9 Sudoeste 17 Oeste 0 -- -- 76
2019-06-02 08:00:00 11.6 4 Sur 12 Sudoeste 0 -- -- 90
2019-06-02 07:00:00 9 3 Sudeste 12 Oeste 0 -- -- 99
2019-06-02 06:00:00 9.2 3 Sur 11 Sur 0 -- -- 97
2019-06-02 05:00:00 10 2 Sur 17 Sudoeste 0 -- -- 94
2019-06-02 04:00:00 10.8 7 Sudoeste 18 Oeste 0 -- -- 93
2019-06-02 03:00:00 11.4 7 Sudoeste 23 Sudoeste 0 -- -- 90
2019-06-02 02:00:00 12.6 12 Sudoeste 26 Oeste 0 -- -- 85
2019-06-02 01:00:00 12.5 8 Sudoeste 18 Sudoeste 0 -- -- 88
2019-06-02 00:00:00 11.1 2 Sur 5 Sudoeste 0 -- -- 94
2019-06-01 23:00:00 12.5 0 Calma 3 Sudeste 0 -- -- 88
2019-06-01 22:00:00 14.7 0 Calma 3 Sur 0 -- -- 80
2019-06-01 21:00:00 18.3 0 Calma 9 Este 0 -- -- 70
2019-06-01 20:00:00 21.1 5 Este 15 Este 0 -- -- 54
2019-06-01 19:00:00 22.7 8 Sudeste 18 Este 0 -- -- 52
2019-06-01 18:00:00 23.8 7 Este 20 Este 0 -- -- 49
2019-06-01 17:00:00 24.5 8 Este 21 Nordeste 0 -- -- 49
2019-06-01 16:00:00 25.1 6 Este 18 Este 0 -- -- 41
2019-06-01 15:00:00 24.6 6 Sur 23 Nordeste 0 -- -- 43
2019-06-01 14:00:00 24 6 Nordeste 22 Este 0 -- -- 44
2019-06-01 13:00:00 23.4 7 Este 18 Este 0 -- -- 45
2019-06-01 12:00:00 22.8 6 Este 15 Este 0 -- -- 47
2019-06-01 11:00:00 22.2 6 Este 13 Este 0 -- -- 49
2019-06-01 10:00:00 18.7 2 Sudoeste 5 Sudoeste 0 -- -- 68
2019-06-01 09:00:00 13.9 3 Sudoeste 5 Sudoeste 0 -- -- 82
2019-06-01 08:00:00 10.3 0 Calma 4 Oeste 0 -- -- 100
2019-06-01 07:00:00 7.3 0 Calma 3 Sur 0 -- -- 100
2019-06-01 06:00:00 7.4 0 Calma 3 Sur 0 -- -- 100
2019-06-01 05:00:00 7.7 2 Oeste 3 Sudeste 0 -- -- 100
2019-06-01 04:00:00 7.5 0 Calma 3 Sudeste 0 -- -- 100
2019-06-01 03:00:00 8.3 0 Calma 7 Sudoeste 0 -- -- 100
2019-06-01 02:00:00 8.6 4 Sur 6 Sur 0 -- -- 99
2019-06-01 01:00:00 9.4 0 Calma 3 Sur 0 -- -- 97
2019-06-01 00:00:00 10.3 0 Calma 3 Sur 0 -- -- 94
2019-05-31 23:00:00 11.6 0 Calma 3 Sudeste 0 -- -- 91
2019-05-31 22:00:00 13.6 0 Calma 4 Norte 0 -- -- 83
2019-05-31 21:00:00 17.6 3 Nordeste 11 Nordeste 0 -- -- 69
2019-05-31 20:00:00 18.9 7 Sudeste 15 Este 0 -- -- 64
2019-05-31 19:00:00 20.7 6 Sudeste 17 Este 0 -- -- 59
2019-05-31 18:00:00 22.2 5 Sudeste 18 Nordeste 0 -- -- 56
2019-05-31 17:00:00 21.2 11 Este 21 Este 0 -- -- 56
2019-05-31 16:00:00 21.5 11 Sudeste 22 Nordeste 0 -- -- 58
2019-05-31 15:00:00 23 4 Este 14 Este 0 -- -- 47
2019-05-31 14:00:00 21.5 6 Este 16 Sudeste 0 -- -- 51
2019-05-31 13:00:00 21.9 5 Sudoeste 15 Sudoeste 0 -- -- 52
2019-05-31 12:00:00 20.6 8 Oeste 18 Sudoeste 0 -- -- 51
2019-05-31 11:00:00 19.2 8 Sudoeste 24 Sudoeste 0 -- -- 55
2019-05-31 10:00:00 17 10 Sudoeste 22 Sudoeste 0 -- -- 63
2019-05-31 09:00:00 13.1 9 Sudoeste 18 Sudoeste 0 -- -- 86
2019-05-31 08:00:00 9.8 4 Sur 9 Sudoeste 0 -- -- 100
2019-05-31 07:00:00 7.6 3 Sur 12 Sudoeste 0 -- -- 100
2019-05-31 06:00:00 7.9 5 Sudoeste 18 Sudoeste 0 -- -- 100
2019-05-31 05:00:00 7.2 0 Calma 4 Oeste 0 -- -- 100
2019-05-31 04:00:00 6.7 2 Nordeste 4 Sur 0 -- -- 99
2019-05-31 03:00:00 7.5 2 Sudoeste 4 Sur 0 -- -- 97
2019-05-31 02:00:00 9.1 0 Calma 6 Norte 0 -- -- 93
2019-05-31 01:00:00 10.4 3 Nordeste 10 Norte 0 -- -- 91
2019-05-31 00:00:00 10.1 2 Este 8 Nordeste 0 -- -- 95
2019-05-30 23:00:00 10.5 0 Calma 6 Norte 0 -- -- 92
2019-05-30 22:00:00 11.9 0 Calma 4 Sudeste 0 -- -- 84
2019-05-30 21:00:00 15.5 2 Sur 13 Este 0 -- -- 73
2019-05-30 20:00:00 17.8 8 Sudeste 19 Este 0 -- -- 61
2019-05-30 19:00:00 18.9 8 Sudeste 28 Este 0 -- -- 59
2019-05-30 18:00:00 20.7 7 Este 18 Este 0 -- -- 51
2019-05-30 17:00:00 20.6 8 Este 19 Este 0 -- -- 53
2019-05-30 16:00:00 21.2 5 Este 16 Sur 0 -- -- 53
2019-05-30 15:00:00 20.6 7 Este 21 Este 0 -- -- 52
2019-05-30 14:00:00 19.6 6 Sudeste 15 Este 0 -- -- 54
2019-05-30 13:00:00 19.4 6 Este 14 Este 0 -- -- 49
2019-05-30 12:00:00 18 5 Sur 15 Este 0 -- -- 53
2019-05-30 11:00:00 17.2 4 Este 15 Sudoeste 0 -- -- 60
2019-05-30 10:00:00 14.8 8 Sudoeste 14 Oeste 0 -- -- 59
2019-05-30 09:00:00 10.5 6 Sudoeste 14 Sudoeste 0 -- -- 85
2019-05-30 08:00:00 6.2 4 Sudoeste 9 Sur 0 -- -- 100
2019-05-30 07:00:00 3 2 Sur 4 Noroeste 0 -- -- 100
2019-05-30 06:00:00 3 3 Sur 5 Sur 0 -- -- 100
2019-05-30 05:00:00 3.6 0 Calma 5 Sur 0 -- -- 100
2019-05-30 04:00:00 3.8 2 Sudoeste 6 Sur 0 -- -- 100
2019-05-30 03:00:00 4.2 0 Calma 5 Sur 0 -- -- 97
2019-05-30 02:00:00 5.1 2 Oeste 5 Norte 0 -- -- 96
2019-05-30 01:00:00 6 2 Este 8 Nordeste 0 -- -- 93
2019-05-30 00:00:00 7 3 Este 7 Este 0 -- -- 92
2019-05-29 23:00:00 7.9 2 Norte 5 Este 0 -- -- 95
2019-05-29 22:00:00 9.5 0 Calma 4 Sur 0 -- -- 86
2019-05-29 21:00:00 12.9 3 Norte 10 Este 0 -- -- 75
2019-05-29 20:00:00 15.1 4 Sudeste 16 Este 0 -- -- 65
2019-05-29 19:00:00 15.9 7 Este 17 Este 0 -- -- 66
2019-05-29 18:00:00 16.8 7 Nordeste 21 Nordeste 0 -- -- 62
2019-05-29 17:00:00 17.5 7 Este 18 Este 0 -- -- 53
2019-05-29 16:00:00 17.2 9 Este 20 Sudeste 0 -- -- 56
2019-05-29 15:00:00 17.2 3 Nordeste 17 Este 0 -- -- 53
2019-05-29 14:00:00 16.9 4 Sudeste 12 Este 0 -- -- 49
2019-05-29 13:00:00 16.1 4 Sudeste 10 Sur 0 -- -- 52
2019-05-29 12:00:00 14.5 6 Sudeste 13 Nordeste 0 -- -- 58
2019-05-29 11:00:00 15.2 5 Nordeste 13 Nordeste 0 -- -- 60
2019-05-29 10:00:00 13.1 4 Norte 10 Norte 0 -- -- 53
2019-05-29 09:00:00 10.6 3 Este 9 Norte 0 -- -- 80
2019-05-29 08:00:00 6.7 2 Este 5 Nordeste 0 -- -- 95
2019-05-29 07:00:00 3.4 3 Sudeste 5 Norte 0 -- -- 99
2019-05-29 06:00:00 4.7 0 Calma 14 Este 0 -- -- 97
2019-05-29 05:00:00 4.6 5 Nordeste 11 Norte 0 -- -- 96
2019-05-29 04:00:00 4.4 2 Nordeste 6 Nordeste 0 -- -- 98
2019-05-29 03:00:00 5.4 4 Este 13 Norte 0 -- -- 97
2019-05-29 02:00:00 6.8 4 Este 9 Nordeste 0 -- -- 97
2019-05-29 01:00:00 7.4 3 Nordeste 6 Nordeste 0 -- -- 100
2019-05-29 00:00:00 8.2 3 Nordeste 7 Norte 0 -- -- 100
2019-05-28 23:00:00 7.9 3 Nordeste 7 Oeste 0 -- -- 97
2019-05-28 22:00:00 9.2 0 Calma 5 Sudeste 0 -- -- 96
2019-05-28 21:00:00 11 2 Nordeste 9 Nordeste 0 -- -- 93
2019-05-28 20:00:00 11.7 5 Este 11 Sudeste 0 -- -- 88
2019-05-28 19:00:00 12.6 4 Sudeste 10 Nordeste 0 -- -- 81
2019-05-28 18:00:00 10.7 3 Nordeste 13 Norte 0.4 -- -- 95
2019-05-28 17:00:00 11.1 3 Este 10 Nordeste 0.6 -- -- 93
2019-05-28 16:00:00 11.8 4 Norte 15 Nordeste 0 -- -- 87
2019-05-28 15:00:00 12.5 8 Este 18 Este 0.4 -- -- 78
2019-05-28 14:00:00 14.4 7 Este 18 Este 0 -- -- 77
2019-05-28 13:00:00 15.3 7 Este 18 Este 0 -- -- 74
2019-05-28 12:00:00 16.2 9 Este 18 Este 0 -- -- 72
2019-05-28 11:00:00 14.4 7 Este 15 Este 0 -- -- 78
2019-05-28 10:00:00 15 5 Este 12 Nordeste 0 -- -- 76
2019-05-28 09:00:00 11.5 3 Nordeste 4 Nordeste 0 -- -- 84
2019-05-28 08:00:00 8.6 0 Calma 9 Norte 0 -- -- 95
2019-05-28 07:00:00 8.1 4 Nordeste 8 Nordeste 0 -- -- 93
2019-05-28 06:00:00 7.4 2 Nordeste 5 Norte 0 -- -- 99
2019-05-28 05:00:00 7.7 0 Calma 6 Norte 0 -- -- 100
2019-05-28 04:00:00 7.8 0 Calma 2 Sur 0 -- -- 100
2019-05-28 03:00:00 7.9 2 Sudoeste 4 Sudoeste 0 -- -- 100
2019-05-28 02:00:00 8 0 Calma 5 Norte 0 -- -- 100
2019-05-28 01:00:00 7.8 2 Sur 6 Sur 0 -- -- 97
2019-05-28 00:00:00 9.2 0 Calma 3 Sur 0 -- -- 95